sensor_id;sensor_type;location;lat;lon;timestamp;pressure;altitude;pressure_sealevel;temperature;humidity
72414;BME280;60995;52.154;4.498;2023-04-25T00:00:51;101116.09;;;8.55;63.94
72414;BME280;60995;52.154;4.498;2023-04-25T00:03:08;101114.78;;;8.60;62.90
72414;BME280;60995;52.154;4.498;2023-04-25T00:05:26;101118.66;;;8.56;63.55
72414;BME280;60995;52.154;4.498;2023-04-25T00:07:43;101114.28;;;8.67;63.66
72414;BME280;60995;52.154;4.498;2023-04-25T00:09:59;101113.16;;;8.58;63.98
72414;BME280;60995;52.154;4.498;2023-04-25T00:12:18;101115.16;;;8.67;63.56
72414;BME280;60995;52.154;4.498;2023-04-25T00:14:35;101118.50;;;8.82;63.89
72414;BME280;60995;52.154;4.498;2023-04-25T00:16:54;101117.09;;;8.65;64.26
72414;BME280;60995;52.154;4.498;2023-04-25T00:19:10;101123.28;;;8.67;64.44
72414;BME280;60995;52.154;4.498;2023-04-25T00:21:27;101123.75;;;8.61;64.17
72414;BME280;60995;52.154;4.498;2023-04-25T00:23:44;101116.72;;;8.58;63.92
72414;BME280;60995;52.154;4.498;2023-04-25T00:26:02;101124.94;;;8.57;64.45
72414;BME280;60995;52.154;4.498;2023-04-25T00:28:18;101126.84;;;8.43;64.86
72414;BME280;60995;52.154;4.498;2023-04-25T00:30:35;101121.09;;;8.48;64.98
72414;BME280;60995;52.154;4.498;2023-04-25T00:32:51;101120.44;;;8.44;64.92
72414;BME280;60995;52.154;4.498;2023-04-25T00:35:08;101122.19;;;8.46;64.50
72414;BME280;60995;52.154;4.498;2023-04-25T00:37:25;101129.13;;;8.37;64.82
72414;BME280;60995;52.154;4.498;2023-04-25T00:39:42;101123.56;;;8.27;64.97
72414;BME280;60995;52.154;4.498;2023-04-25T00:41:58;101124.81;;;8.34;64.08
72414;BME280;60995;52.154;4.498;2023-04-25T00:44:15;101136.16;;;8.39;63.14
72414;BME280;60995;52.154;4.498;2023-04-25T00:46:32;101131.81;;;8.25;63.41
72414;BME280;60995;52.154;4.498;2023-04-25T00:48:51;101127.69;;;8.20;62.24
72414;BME280;60995;52.154;4.498;2023-04-25T00:51:07;101125.50;;;8.25;61.48
72414;BME280;60995;52.154;4.498;2023-04-25T00:53:32;101128.56;;;8.20;60.64
72414;BME280;60995;52.154;4.498;2023-04-25T00:55:49;101135.81;;;8.20;60.61
72414;BME280;60995;52.154;4.498;2023-04-25T00:58:09;101138.88;;;8.15;61.02
72414;BME280;60995;52.154;4.498;2023-04-25T01:00:25;101145.88;;;8.18;59.86
72414;BME280;60995;52.154;4.498;2023-04-25T01:02:42;101136.16;;;8.15;59.44
72414;BME280;60995;52.154;4.498;2023-04-25T01:05:00;101142.66;;;8.13;59.32
72414;BME280;60995;52.154;4.498;2023-04-25T01:07:17;101144.47;;;8.12;59.28
72414;BME280;60995;52.154;4.498;2023-04-25T01:09:33;101158.28;;;7.96;59.96
72414;BME280;60995;52.154;4.498;2023-04-25T01:11:50;101145.56;;;8.09;59.77
72414;BME280;60995;52.154;4.498;2023-04-25T01:14:09;101146.34;;;8.11;60.18
72414;BME280;60995;52.154;4.498;2023-04-25T01:16:29;101147.25;;;7.99;60.28
72414;BME280;60995;52.154;4.498;2023-04-25T01:18:47;101140.81;;;8.13;60.54
72414;BME280;60995;52.154;4.498;2023-04-25T01:21:11;101139.03;;;8.01;61.19
72414;BME280;60995;52.154;4.498;2023-04-25T01:23:28;101144.84;;;8.07;61.14
72414;BME280;60995;52.154;4.498;2023-04-25T01:25:45;101162.84;;;7.95;61.97
72414;BME280;60995;52.154;4.498;2023-04-25T01:28:03;101151.81;;;7.86;61.69
72414;BME280;60995;52.154;4.498;2023-04-25T01:30:20;101162.19;;;7.92;61.08
72414;BME280;60995;52.154;4.498;2023-04-25T01:32:36;101166.91;;;8.01;61.01
72414;BME280;60995;52.154;4.498;2023-04-25T01:34:55;101158.91;;;8.00;61.37
72414;BME280;60995;52.154;4.498;2023-04-25T01:37:16;101167.81;;;7.89;61.63
72414;BME280;60995;52.154;4.498;2023-04-25T01:39:33;101165.09;;;8.02;61.44
72414;BME280;60995;52.154;4.498;2023-04-25T01:41:49;101159.94;;;8.23;61.04
72414;BME280;60995;52.154;4.498;2023-04-25T01:44:05;101164.41;;;8.35;60.79
72414;BME280;60995;52.154;4.498;2023-04-25T01:46:22;101159.00;;;8.35;60.47
72414;BME280;60995;52.154;4.498;2023-04-25T01:48:38;101158.78;;;8.38;60.34
72414;BME280;60995;52.154;4.498;2023-04-25T01:50:55;101156.81;;;8.40;60.82
72414;BME280;60995;52.154;4.498;2023-04-25T01:53:12;101157.34;;;8.46;61.32
72414;BME280;60995;52.154;4.498;2023-04-25T01:55:30;101153.88;;;8.43;61.66
72414;BME280;60995;52.154;4.498;2023-04-25T01:57:50;101166.41;;;8.44;62.05
72414;BME280;60995;52.154;4.498;2023-04-25T02:00:06;101161.44;;;8.51;62.08
72414;BME280;60995;52.154;4.498;2023-04-25T02:02:34;101168.75;;;8.62;62.35
72414;BME280;60995;52.154;4.498;2023-04-25T02:04:53;101164.94;;;8.65;62.21
72414;BME280;60995;52.154;4.498;2023-04-25T02:07:13;101170.16;;;8.79;61.37
72414;BME280;60995;52.154;4.498;2023-04-25T02:09:30;101174.41;;;8.70;61.48
72414;BME280;60995;52.154;4.498;2023-04-25T02:11:47;101166.31;;;8.70;61.15
72414;BME280;60995;52.154;4.498;2023-04-25T02:14:03;101170.28;;;8.77;60.82
72414;BME280;60995;52.154;4.498;2023-04-25T02:16:20;101167.59;;;8.53;60.69
72414;BME280;60995;52.154;4.498;2023-04-25T02:18:37;101173.44;;;8.71;59.44
72414;BME280;60995;52.154;4.498;2023-04-25T02:20:55;101167.59;;;8.89;59.26
72414;BME280;60995;52.154;4.498;2023-04-25T02:23:15;101170.03;;;8.81;58.14
72414;BME280;60995;52.154;4.498;2023-04-25T02:25:31;101171.06;;;8.91;57.92
72414;BME280;60995;52.154;4.498;2023-04-25T02:27:48;101169.00;;;8.70;58.23
72414;BME280;60995;52.154;4.498;2023-04-25T02:30:05;101171.00;;;8.80;57.95
72414;BME280;60995;52.154;4.498;2023-04-25T02:32:22;101183.22;;;8.85;58.06
72414;BME280;60995;52.154;4.498;2023-04-25T02:34:39;101176.66;;;8.76;57.92
72414;BME280;60995;52.154;4.498;2023-04-25T02:36:55;101179.59;;;8.73;58.04
72414;BME280;60995;52.154;4.498;2023-04-25T02:39:12;101173.75;;;8.91;57.99
72414;BME280;60995;52.154;4.498;2023-04-25T02:41:28;101176.22;;;8.94;57.66
72414;BME280;60995;52.154;4.498;2023-04-25T02:43:46;101184.06;;;8.86;58.09
72414;BME280;60995;52.154;4.498;2023-04-25T02:46:08;101170.00;;;8.69;58.75
72414;BME280;60995;52.154;4.498;2023-04-25T02:48:34;101180.41;;;8.98;58.23
72414;BME280;60995;52.154;4.498;2023-04-25T02:50:51;101172.78;;;8.92;57.92
72414;BME280;60995;52.154;4.498;2023-04-25T02:53:09;101176.25;;;9.05;57.91
72414;BME280;60995;52.154;4.498;2023-04-25T02:55:26;101176.28;;;8.81;59.78
72414;BME280;60995;52.154;4.498;2023-04-25T02:57:42;101172.94;;;8.66;61.45
72414;BME280;60995;52.154;4.498;2023-04-25T02:59:59;101172.31;;;8.63;63.25
72414;BME280;60995;52.154;4.498;2023-04-25T03:02:18;101176.84;;;8.62;63.94
72414;BME280;60995;52.154;4.498;2023-04-25T03:04:34;101169.97;;;8.58;64.23
72414;BME280;60995;52.154;4.498;2023-04-25T03:06:53;101172.16;;;8.53;65.26
72414;BME280;60995;52.154;4.498;2023-04-25T03:09:10;101174.66;;;8.19;67.24
72414;BME280;60995;52.154;4.498;2023-04-25T03:11:26;101171.25;;;8.28;67.03
72414;BME280;60995;52.154;4.498;2023-04-25T03:13:43;101164.28;;;8.13;67.79
72414;BME280;60995;52.154;4.498;2023-04-25T03:16:00;101166.38;;;7.96;68.35
72414;BME280;60995;52.154;4.498;2023-04-25T03:18:16;101180.13;;;7.93;68.42
72414;BME280;60995;52.154;4.498;2023-04-25T03:20:33;101174.00;;;7.78;68.61
72414;BME280;60995;52.154;4.498;2023-04-25T03:22:53;101172.84;;;7.69;69.00
72414;BME280;60995;52.154;4.498;2023-04-25T03:25:09;101183.19;;;7.75;68.50
72414;BME280;60995;52.154;4.498;2023-04-25T03:27:26;101191.22;;;7.64;69.06
72414;BME280;60995;52.154;4.498;2023-04-25T03:29:45;101183.41;;;7.72;68.80
72414;BME280;60995;52.154;4.498;2023-04-25T03:32:07;101189.44;;;7.89;68.72
72414;BME280;60995;52.154;4.498;2023-04-25T03:34:24;101192.88;;;7.91;68.70
72414;BME280;60995;52.154;4.498;2023-04-25T03:36:40;101188.38;;;7.78;68.89
72414;BME280;60995;52.154;4.498;2023-04-25T03:38:56;101188.75;;;7.98;68.55
72414;BME280;60995;52.154;4.498;2023-04-25T03:41:13;101189.69;;;8.10;68.09
72414;BME280;60995;52.154;4.498;2023-04-25T03:43:29;101196.47;;;8.16;68.13
72414;BME280;60995;52.154;4.498;2023-04-25T03:45:46;101191.84;;;8.18;68.46
72414;BME280;60995;52.154;4.498;2023-04-25T03:48:03;101190.88;;;8.19;67.38
72414;BME280;60995;52.154;4.498;2023-04-25T03:50:19;101196.81;;;8.24;67.10
72414;BME280;60995;52.154;4.498;2023-04-25T03:52:38;101189.13;;;8.42;66.37
72414;BME280;60995;52.154;4.498;2023-04-25T03:54:55;101195.59;;;8.28;66.74
72414;BME280;60995;52.154;4.498;2023-04-25T03:57:12;101195.53;;;8.41;65.99
72414;BME280;60995;52.154;4.498;2023-04-25T03:59:28;101212.78;;;8.27;66.01
72414;BME280;60995;52.154;4.498;2023-04-25T04:01:45;101213.63;;;8.27;65.77
72414;BME280;60995;52.154;4.498;2023-04-25T04:04:01;101217.22;;;8.28;65.51
72414;BME280;60995;52.154;4.498;2023-04-25T04:06:18;101213.66;;;8.15;65.87
72414;BME280;60995;52.154;4.498;2023-04-25T04:08:36;101203.38;;;8.20;65.98
72414;BME280;60995;52.154;4.498;2023-04-25T04:10:52;101212.66;;;8.28;65.82
72414;BME280;60995;52.154;4.498;2023-04-25T04:13:08;101221.34;;;8.58;65.48
72414;BME280;60995;52.154;4.498;2023-04-25T04:15:25;101228.63;;;8.07;65.51
72414;BME280;60995;52.154;4.498;2023-04-25T04:17:50;101229.84;;;8.03;65.63
72414;BME280;60995;52.154;4.498;2023-04-25T04:20:12;101238.66;;;8.05;65.29
72414;BME280;60995;52.154;4.498;2023-04-25T04:22:29;101239.56;;;8.06;65.35
72414;BME280;60995;52.154;4.498;2023-04-25T04:24:45;101235.22;;;8.16;65.03
72414;BME280;60995;52.154;4.498;2023-04-25T04:27:02;101234.16;;;8.30;64.32
72414;BME280;60995;52.154;4.498;2023-04-25T04:29:19;101232.81;;;8.11;64.53
72414;BME280;60995;52.154;4.498;2023-04-25T04:31:38;101246.09;;;8.15;64.71
72414;BME280;60995;52.154;4.498;2023-04-25T04:33:57;101250.41;;;8.30;63.99
72414;BME280;60995;52.154;4.498;2023-04-25T04:36:14;101244.78;;;8.33;64.04
72414;BME280;60995;52.154;4.498;2023-04-25T04:38:31;101244.47;;;8.25;63.99
72414;BME280;60995;52.154;4.498;2023-04-25T04:40:48;101238.16;;;8.37;63.65
72414;BME280;60995;52.154;4.498;2023-04-25T04:43:07;101247.94;;;8.27;64.00
72414;BME280;60995;52.154;4.498;2023-04-25T04:45:24;101251.47;;;8.27;63.91
72414;BME280;60995;52.154;4.498;2023-04-25T04:47:41;101245.13;;;8.16;64.60
72414;BME280;60995;52.154;4.498;2023-04-25T04:49:57;101242.44;;;8.16;64.29
72414;BME280;60995;52.154;4.498;2023-04-25T04:52:13;101254.00;;;8.18;63.61
72414;BME280;60995;52.154;4.498;2023-04-25T04:54:30;101255.94;;;8.16;64.10
72414;BME280;60995;52.154;4.498;2023-04-25T04:56:46;101252.03;;;8.20;64.21
72414;BME280;60995;52.154;4.498;2023-04-25T04:59:02;101255.75;;;8.19;63.87
72414;BME280;60995;52.154;4.498;2023-04-25T05:01:19;101270.63;;;8.24;63.79
72414;BME280;60995;52.154;4.498;2023-04-25T05:03:35;101267.59;;;8.29;64.00
72414;BME280;60995;52.154;4.498;2023-04-25T05:05:51;101271.09;;;8.05;64.38
72414;BME280;60995;52.154;4.498;2023-04-25T05:08:08;101275.25;;;7.98;63.82
72414;BME280;60995;52.154;4.498;2023-04-25T05:10:25;101275.91;;;7.89;63.07
72414;BME280;60995;52.154;4.498;2023-04-25T05:12:41;101287.88;;;7.85;61.76
72414;BME280;60995;52.154;4.498;2023-04-25T05:14:58;101291.44;;;7.72;61.22
72414;BME280;60995;52.154;4.498;2023-04-25T05:17:14;101291.34;;;7.74;61.12
72414;BME280;60995;52.154;4.498;2023-04-25T05:19:32;101288.94;;;7.95;61.36
72414;BME280;60995;52.154;4.498;2023-04-25T05:21:52;101299.69;;;7.84;60.79
72414;BME280;60995;52.154;4.498;2023-04-25T05:24:09;101301.59;;;7.82;60.76
72414;BME280;60995;52.154;4.498;2023-04-25T05:26:28;101310.47;;;7.84;60.14
72414;BME280;60995;52.154;4.498;2023-04-25T05:28:46;101314.88;;;8.10;59.99
72414;BME280;60995;52.154;4.498;2023-04-25T05:31:03;101327.00;;;8.05;59.74
72414;BME280;60995;52.154;4.498;2023-04-25T05:33:19;101329.16;;;7.87;60.42
72414;BME280;60995;52.154;4.498;2023-04-25T05:35:36;101347.94;;;7.62;63.12
72414;BME280;60995;52.154;4.498;2023-04-25T05:37:52;101360.22;;;7.41;65.96
72414;BME280;60995;52.154;4.498;2023-04-25T05:40:09;101362.13;;;7.26;67.67
72414;BME280;60995;52.154;4.498;2023-04-25T05:42:26;101365.13;;;7.21;68.27
72414;BME280;60995;52.154;4.498;2023-04-25T05:44:42;101362.22;;;7.24;69.48
72414;BME280;60995;52.154;4.498;2023-04-25T05:46:59;101354.69;;;7.02;70.29
72414;BME280;60995;52.154;4.498;2023-04-25T05:49:15;101349.97;;;7.06;70.85
72414;BME280;60995;52.154;4.498;2023-04-25T05:51:31;101356.59;;;6.87;72.13
72414;BME280;60995;52.154;4.498;2023-04-25T05:53:48;101342.25;;;7.27;71.09
72414;BME280;60995;52.154;4.498;2023-04-25T05:56:04;101338.38;;;7.31;71.69
72414;BME280;60995;52.154;4.498;2023-04-25T05:58:21;101338.44;;;7.57;71.52
72414;BME280;60995;52.154;4.498;2023-04-25T06:00:38;101347.53;;;7.82;71.34
72414;BME280;60995;52.154;4.498;2023-04-25T06:02:55;101351.88;;;7.97;71.30
72414;BME280;60995;52.154;4.498;2023-04-25T06:05:12;101349.03;;;8.11;71.07
72414;BME280;60995;52.154;4.498;2023-04-25T06:07:28;101338.34;;;8.49;70.78
72414;BME280;60995;52.154;4.498;2023-04-25T06:09:46;101349.72;;;8.78;69.84
72414;BME280;60995;52.154;4.498;2023-04-25T06:12:03;101354.50;;;9.23;69.34
72414;BME280;60995;52.154;4.498;2023-04-25T06:14:20;101354.94;;;9.76;67.13
72414;BME280;60995;52.154;4.498;2023-04-25T06:16:36;101356.00;;;10.21;66.03
72414;BME280;60995;52.154;4.498;2023-04-25T06:18:53;101360.69;;;10.75;64.73
72414;BME280;60995;52.154;4.498;2023-04-25T06:21:09;101355.84;;;10.79;63.28
72414;BME280;60995;52.154;4.498;2023-04-25T06:23:26;101360.69;;;10.75;61.80
72414;BME280;60995;52.154;4.498;2023-04-25T06:25:42;101370.34;;;11.12;61.13
72414;BME280;60995;52.154;4.498;2023-04-25T06:27:58;101365.22;;;10.18;60.13
72414;BME280;60995;52.154;4.498;2023-04-25T06:30:18;101372.03;;;10.69;58.60
72414;BME280;60995;52.154;4.498;2023-04-25T06:32:38;101368.03;;;13.16;54.79
72414;BME280;60995;52.154;4.498;2023-04-25T06:34:55;101368.72;;;15.45;47.42
72414;BME280;60995;52.154;4.498;2023-04-25T06:37:11;101364.50;;;18.64;40.10
72414;BME280;60995;52.154;4.498;2023-04-25T06:39:27;101364.63;;;18.31;39.32
72414;BME280;60995;52.154;4.498;2023-04-25T06:41:44;101369.59;;;18.27;37.62
72414;BME280;60995;52.154;4.498;2023-04-25T06:44:00;101355.13;;;21.17;34.75
72414;BME280;60995;52.154;4.498;2023-04-25T06:46:17;101353.66;;;22.08;31.45
72414;BME280;60995;52.154;4.498;2023-04-25T06:48:33;101371.63;;;19.44;33.37
72414;BME280;60995;52.154;4.498;2023-04-25T06:50:50;101371.88;;;19.03;35.23
72414;BME280;60995;52.154;4.498;2023-04-25T06:53:06;101370.13;;;18.23;36.68
72414;BME280;60995;52.154;4.498;2023-04-25T06:55:24;101374.38;;;19.21;35.85
72414;BME280;60995;52.154;4.498;2023-04-25T06:57:40;101377.09;;;18.42;37.10
72414;BME280;60995;52.154;4.498;2023-04-25T06:59:57;101376.81;;;17.62;37.28
72414;BME280;60995;52.154;4.498;2023-04-25T07:02:13;101377.69;;;17.38;38.19
72414;BME280;60995;52.154;4.498;2023-04-25T07:04:29;101381.06;;;18.87;34.76
72414;BME280;60995;52.154;4.498;2023-04-25T07:06:46;101375.06;;;17.12;38.36
72414;BME280;60995;52.154;4.498;2023-04-25T07:09:04;101371.38;;;17.95;36.13
72414;BME280;60995;52.154;4.498;2023-04-25T07:11:21;101379.88;;;16.75;37.45
72414;BME280;60995;52.154;4.498;2023-04-25T07:13:37;101397.09;;;14.98;40.57
72414;BME280;60995;52.154;4.498;2023-04-25T07:15:54;101389.59;;;15.00;40.68
72414;BME280;60995;52.154;4.498;2023-04-25T07:18:10;101396.81;;;14.74;40.29
72414;BME280;60995;52.154;4.498;2023-04-25T07:20:27;101398.41;;;16.47;37.09
72414;BME280;60995;52.154;4.498;2023-04-25T07:22:43;101396.69;;;15.93;38.48
72414;BME280;60995;52.154;4.498;2023-04-25T07:24:59;101396.41;;;16.57;36.53
72414;BME280;60995;52.154;4.498;2023-04-25T07:27:16;101402.28;;;16.10;37.24
72414;BME280;60995;52.154;4.498;2023-04-25T07:29:32;101396.41;;;17.51;35.07
72414;BME280;60995;52.154;4.498;2023-04-25T07:31:51;101403.31;;;16.69;36.47
72414;BME280;60995;52.154;4.498;2023-04-25T07:34:08;101402.16;;;16.46;35.00
72414;BME280;60995;52.154;4.498;2023-04-25T07:36:25;101401.69;;;19.23;33.25
72414;BME280;60995;52.154;4.498;2023-04-25T07:38:42;101397.69;;;19.02;30.68
72414;BME280;60995;52.154;4.498;2023-04-25T07:40:58;101407.75;;;18.70;30.33
72414;BME280;60995;52.154;4.498;2023-04-25T07:43:15;101405.91;;;17.22;33.64
72414;BME280;60995;52.154;4.498;2023-04-25T07:45:32;101414.22;;;16.96;34.08
72414;BME280;60995;52.154;4.498;2023-04-25T07:47:49;101410.13;;;19.21;31.89
72414;BME280;60995;52.154;4.498;2023-04-25T07:50:06;101400.22;;;20.58;29.27
72414;BME280;60995;52.154;4.498;2023-04-25T07:52:23;101404.28;;;20.62;30.20
72414;BME280;60995;52.154;4.498;2023-04-25T07:54:39;101415.22;;;23.35;25.66
72414;BME280;60995;52.154;4.498;2023-04-25T07:56:56;101412.31;;;21.60;27.26
72414;BME280;60995;52.154;4.498;2023-04-25T07:59:12;101413.28;;;21.15;29.16
72414;BME280;60995;52.154;4.498;2023-04-25T08:01:29;101410.81;;;20.31;29.93
72414;BME280;60995;52.154;4.498;2023-04-25T08:03:45;101422.25;;;21.54;29.55
72414;BME280;60995;52.154;4.498;2023-04-25T08:06:07;101427.06;;;21.67;27.54
72414;BME280;60995;52.154;4.498;2023-04-25T08:08:27;101445.59;;;16.67;34.80
72414;BME280;60995;52.154;4.498;2023-04-25T08:10:45;101451.56;;;15.74;38.90
72414;BME280;60995;52.154;4.498;2023-04-25T08:13:04;101442.41;;;16.80;37.72
72414;BME280;60995;52.154;4.498;2023-04-25T08:15:20;101455.06;;;18.49;33.50
72414;BME280;60995;52.154;4.498;2023-04-25T08:17:42;101459.84;;;16.70;36.68
72414;BME280;60995;52.154;4.498;2023-04-25T08:19:59;101466.31;;;17.39;35.09
72414;BME280;60995;52.154;4.498;2023-04-25T08:22:16;101474.78;;;18.61;33.99
72414;BME280;60995;52.154;4.498;2023-04-25T08:24:38;101475.03;;;19.70;31.43
72414;BME280;60995;52.154;4.498;2023-04-25T08:26:56;101476.69;;;16.31;34.40
72414;BME280;60995;52.154;4.498;2023-04-25T08:29:18;101486.22;;;14.71;37.43
72414;BME280;60995;52.154;4.498;2023-04-25T08:31:35;101490.50;;;14.84;37.87
72414;BME280;60995;52.154;4.498;2023-04-25T08:33:53;101496.31;;;15.09;36.60
72414;BME280;60995;52.154;4.498;2023-04-25T08:36:12;101500.81;;;14.33;38.61
72414;BME280;60995;52.154;4.498;2023-04-25T08:38:28;101498.72;;;15.12;38.60
72414;BME280;60995;52.154;4.498;2023-04-25T08:40:49;101502.38;;;15.94;37.28
72414;BME280;60995;52.154;4.498;2023-04-25T08:43:13;101505.28;;;16.55;35.03
72414;BME280;60995;52.154;4.498;2023-04-25T08:45:31;101510.03;;;15.45;36.50
72414;BME280;60995;52.154;4.498;2023-04-25T08:47:53;101513.78;;;15.71;37.00
72414;BME280;60995;52.154;4.498;2023-04-25T08:50:16;101522.91;;;16.52;36.90
72414;BME280;60995;52.154;4.498;2023-04-25T08:52:44;101529.75;;;15.94;36.61
72414;BME280;60995;52.154;4.498;2023-04-25T08:55:08;101526.72;;;15.69;37.17
72414;BME280;60995;52.154;4.498;2023-04-25T08:57:27;101516.03;;;16.75;36.32
72414;BME280;60995;52.154;4.498;2023-04-25T08:59:46;101528.44;;;17.13;34.31
72414;BME280;60995;52.154;4.498;2023-04-25T09:02:15;101548.00;;;17.18;34.99
72414;BME280;60995;52.154;4.498;2023-04-25T09:04:36;101553.38;;;16.49;38.81
72414;BME280;60995;52.154;4.498;2023-04-25T09:06:53;101546.78;;;18.15;35.83
72414;BME280;60995;52.154;4.498;2023-04-25T09:09:09;101553.25;;;17.38;37.64
72414;BME280;60995;52.154;4.498;2023-04-25T09:11:26;101563.31;;;16.77;38.55
72414;BME280;60995;52.154;4.498;2023-04-25T09:13:43;101567.06;;;16.31;39.71
72414;BME280;60995;52.154;4.498;2023-04-25T09:16:11;101574.97;;;16.34;40.27
72414;BME280;60995;52.154;4.498;2023-04-25T09:18:38;101567.47;;;16.81;40.19
72414;BME280;60995;52.154;4.498;2023-04-25T09:21:05;101565.34;;;16.48;39.39
72414;BME280;60995;52.154;4.498;2023-04-25T09:23:28;101571.75;;;15.57;40.19
72414;BME280;60995;52.154;4.498;2023-04-25T09:25:55;101571.06;;;15.17;41.97
72414;BME280;60995;52.154;4.498;2023-04-25T09:28:12;101578.47;;;16.09;39.59
72414;BME280;60995;52.154;4.498;2023-04-25T09:30:29;101577.09;;;15.21;40.98
72414;BME280;60995;52.154;4.498;2023-04-25T09:32:49;101578.41;;;16.00;41.02
72414;BME280;60995;52.154;4.498;2023-04-25T09:35:06;101578.78;;;17.47;36.84
72414;BME280;60995;52.154;4.498;2023-04-25T09:37:29;101574.91;;;18.17;34.85
72414;BME280;60995;52.154;4.498;2023-04-25T09:39:48;101573.47;;;19.99;33.25
72414;BME280;60995;52.154;4.498;2023-04-25T09:42:25;101577.59;;;19.24;31.24
72414;BME280;60995;52.154;4.498;2023-04-25T09:44:44;101575.41;;;19.11;33.54
72414;BME280;60995;52.154;4.498;2023-04-25T09:47:04;101575.97;;;18.57;34.65
72414;BME280;60995;52.154;4.498;2023-04-25T09:49:27;101578.63;;;20.03;32.13
72414;BME280;60995;52.154;4.498;2023-04-25T09:52:02;101570.81;;;18.79;33.45
72414;BME280;60995;52.154;4.498;2023-04-25T09:54:18;101581.47;;;20.56;31.46
72414;BME280;60995;52.154;4.498;2023-04-25T09:56:36;101577.50;;;19.49;33.93
72414;BME280;60995;52.154;4.498;2023-04-25T09:59:05;101591.22;;;17.59;35.25
72414;BME280;60995;52.154;4.498;2023-04-25T10:01:23;101586.41;;;16.48;37.45
72414;BME280;60995;52.154;4.498;2023-04-25T10:03:41;101591.53;;;15.97;39.18
72414;BME280;60995;52.154;4.498;2023-04-25T10:06:07;101598.28;;;16.02;38.02
72414;BME280;60995;52.154;4.498;2023-04-25T10:08:25;101606.34;;;16.40;36.05
72414;BME280;60995;52.154;4.498;2023-04-25T10:10:53;101596.69;;;18.02;32.91
72414;BME280;60995;52.154;4.498;2023-04-25T10:13:11;101592.03;;;20.06;30.44
72414;BME280;60995;52.154;4.498;2023-04-25T10:15:32;101590.75;;;20.40;29.08
72414;BME280;60995;52.154;4.498;2023-04-25T10:17:51;101593.00;;;20.97;29.03
72414;BME280;60995;52.154;4.498;2023-04-25T10:20:12;101606.66;;;20.29;31.07
72414;BME280;60995;52.154;4.498;2023-04-25T10:22:51;101599.56;;;20.58;28.80
72414;BME280;60995;52.154;4.498;2023-04-25T10:25:21;101614.06;;;21.28;27.71
72414;BME280;60995;52.154;4.498;2023-04-25T10:27:42;101601.91;;;21.53;27.07
72414;BME280;60995;52.154;4.498;2023-04-25T10:30:13;101615.75;;;20.99;28.23
72414;BME280;60995;52.154;4.498;2023-04-25T10:32:36;101611.97;;;21.15;27.74
72414;BME280;60995;52.154;4.498;2023-04-25T10:34:55;101611.28;;;21.88;26.49
72414;BME280;60995;52.154;4.498;2023-04-25T10:37:13;101617.59;;;20.46;28.79
72414;BME280;60995;52.154;4.498;2023-04-25T10:39:34;101612.84;;;21.16;28.25
72414;BME280;60995;52.154;4.498;2023-04-25T10:41:56;101614.31;;;20.65;27.81
72414;BME280;60995;52.154;4.498;2023-04-25T10:44:20;101617.75;;;19.50;29.21
72414;BME280;60995;52.154;4.498;2023-04-25T10:46:37;101610.94;;;21.02;27.43
72414;BME280;60995;52.154;4.498;2023-04-25T10:48:58;101612.53;;;22.22;27.61
72414;BME280;60995;52.154;4.498;2023-04-25T10:51:26;101613.78;;;21.83;26.58
72414;BME280;60995;52.154;4.498;2023-04-25T10:53:56;101618.75;;;22.68;25.87
72414;BME280;60995;52.154;4.498;2023-04-25T10:59:11;101628.16;;;18.32;30.24
72414;BME280;60995;52.154;4.498;2023-04-25T11:01:40;101615.72;;;17.95;32.21
72414;BME280;60995;52.154;4.498;2023-04-25T11:03:58;101630.72;;;18.26;33.09
72414;BME280;60995;52.154;4.498;2023-04-25T11:06:22;101633.97;;;18.21;32.84
72414;BME280;60995;52.154;4.498;2023-04-25T11:08:54;101623.59;;;19.47;31.97
72414;BME280;60995;52.154;4.498;2023-04-25T11:11:11;101630.63;;;19.58;31.02
72414;BME280;60995;52.154;4.498;2023-04-25T11:13:29;101630.31;;;17.27;34.91
72414;BME280;60995;52.154;4.498;2023-04-25T11:15:51;101638.22;;;17.03;34.47
72414;BME280;60995;52.154;4.498;2023-04-25T11:18:07;101621.91;;;17.97;33.12
72414;BME280;60995;52.154;4.498;2023-04-25T11:20:27;101622.91;;;19.45;31.01
72414;BME280;60995;52.154;4.498;2023-04-25T11:22:46;101633.06;;;20.24;29.59
72414;BME280;60995;52.154;4.498;2023-04-25T11:25:11;101626.47;;;19.14;28.59
72414;BME280;60995;52.154;4.498;2023-04-25T11:27:28;101638.59;;;17.09;32.47
72414;BME280;60995;52.154;4.498;2023-04-25T11:29:45;101636.53;;;15.57;34.03
72414;BME280;60995;52.154;4.498;2023-04-25T11:32:04;101642.09;;;16.02;34.22
72414;BME280;60995;52.154;4.498;2023-04-25T11:34:21;101639.31;;;17.45;32.92
72414;BME280;60995;52.154;4.498;2023-04-25T11:36:38;101647.50;;;16.84;33.38
72414;BME280;60995;52.154;4.498;2023-04-25T11:38:55;101645.00;;;16.37;34.84
72414;BME280;60995;52.154;4.498;2023-04-25T11:41:11;101654.91;;;16.20;34.90
72414;BME280;60995;52.154;4.498;2023-04-25T11:43:28;101637.31;;;17.21;33.62
72414;BME280;60995;52.154;4.498;2023-04-25T11:45:49;101653.59;;;16.78;34.53
72414;BME280;60995;52.154;4.498;2023-04-25T11:48:07;101646.25;;;15.69;34.92
72414;BME280;60995;52.154;4.498;2023-04-25T11:50:25;101657.16;;;14.84;36.82
72414;BME280;60995;52.154;4.498;2023-04-25T11:52:46;101664.78;;;14.70;37.07
72414;BME280;60995;52.154;4.498;2023-04-25T11:55:12;101661.03;;;14.91;36.62
72414;BME280;60995;52.154;4.498;2023-04-25T11:57:31;101675.09;;;14.37;35.67
72414;BME280;60995;52.154;4.498;2023-04-25T11:59:47;101667.38;;;14.52;36.91
72414;BME280;60995;52.154;4.498;2023-04-25T12:02:04;101666.16;;;15.61;35.66
72414;BME280;60995;52.154;4.498;2023-04-25T12:04:24;101668.22;;;14.92;36.81
72414;BME280;60995;52.154;4.498;2023-04-25T12:06:42;101670.06;;;14.43;36.83
72414;BME280;60995;52.154;4.498;2023-04-25T12:09:10;101676.13;;;15.15;36.91
72414;BME280;60995;52.154;4.498;2023-04-25T12:11:32;101667.22;;;15.78;37.17